Latest Weather Observations for Miles

IDQ60801

Issued at 10:02 am EST Tuesday 7 December 2021 (issued every 10 minutes, with the page automatically refreshed every 10 minutes)

About weather observations | Map of weather stations | Latest weather observations for QLD | Other Formats
Station Details ID: 042112 Name: MILES CONSTANCE STREET Lat: -26.66 Lon: 150.18 Height: 304.8 m
Data from the previous 72 hours. | See also: Recent months at Miles
Date/Time
EST
Temp
°C
App
Temp
°C
Dew
Point
°C
Rel
Hum
%
Delta-T
°C
Wind Press
QNH
hPa
Press
MSL
hPa
Rain since
9am
mm
Dir  Spd
km/h
Gust
km/h
Spd
kts
Gust
kts
07/10:00am 26.2 27.4 19.1 65 4.6 NNE 11 22 6 12 1014.8 1012.9 0.2
07/09:30am 25.2 25.7 18.4 66 4.4 NNE 13 20 7 11 1015.0 1013.1 0.2
07/09:00am 24.7 24.6 17.9 66 4.3 NNE 15 26 8 14 1015.2 1013.3 1.8
07/08:30am 24.0 23.3 18.2 70 3.7 NNE 19 28 10 15 1015.6 1013.8 1.8
07/08:00am 23.5 24.1 18.6 74 3.1 N 13 20 7 11 1015.7 1013.9 1.8
07/07:30am 23.1 24.5 19.5 80 2.3 N 11 17 6 9 1015.9 1014.1 1.8
07/07:00am 22.2 24.7 20.3 89 1.2 NNE 7 15 4 8 1015.2 1013.3 1.8
07/06:30am 20.2 23.3 20.2 100 0.0 NE 4 7 2 4 1014.8 1012.9 1.8
07/06:00am 20.4 24.3 20.4 100 0.0 CALM 0 0 0 0 1014.4 1012.5 1.8
07/05:30am 20.4 24.3 20.4 100 0.0 CALM 0 0 0 0 1014.0 1012.1 1.8
07/05:00am 20.5 24.1 20.5 100 0.0 ENE 2 7 1 4 1013.3 1011.5 1.8
07/04:30am 20.5 22.7 20.5 100 0.0 NE 9 13 5 7 1012.7 1010.9 1.8
07/04:00am 20.4 22.2 20.4 100 0.0 NNE 11 19 6 10 1012.1 1010.2 1.8
07/03:30am 20.1 20.6 20.1 100 0.0 NNE 17 26 9 14 1011.6 1009.7 1.8
07/03:00am 19.9 20.7 19.9 100 0.0 NNE 15 19 8 10 1012.6 1010.8 1.8
07/02:30am 19.9 21.9 19.9 100 0.0 NNE 9 15 5 8 1013.8 1011.9 1.8
07/02:00am 20.0 22.6 20.0 100 0.0 NNE 6 9 3 5 1014.1 1012.2 1.6
07/01:30am 19.8 22.3 19.8 100 0.0 N 6 7 3 4 1014.6 1012.7 1.6
07/01:00am 19.8 22.7 19.8 100 0.0 N 4 6 2 3 1015.0 1013.1 1.4
07/12:30am 19.8 22.1 19.8 100 0.0 NNE 7 11 4 6 1015.0 1013.1 1.2
07/12:00am 19.8 22.3 19.8 100 0.0 NNW 6 9 3 5 1015.2 1013.3 1.2
 
Date/Time
EST
Temp
°C
App
Temp
°C
Dew
Point
°C
Rel
Hum
%
Delta-T
°C
Wind Press
QNH
hPa
Press
MSL
hPa
Rain since
9am
mm
Dir  Spd
km/h
Gust
km/h
Spd
kts
Gust
kts
06/11:30pm 20.0 22.4 20.0 100 0.0 N 7 11 4 6 1015.2 1013.3 1.2
06/11:00pm 19.9 22.4 19.9 100 0.0 NNE 6 9 3 5 1015.7 1013.9 1.0
06/10:30pm 19.9 23.2 19.9 100 0.0 N 2 7 1 4 1016.2 1014.4 0.6
06/10:00pm 20.1 23.4 19.9 99 0.1 NW 2 6 1 3 1016.3 1014.5 0.2
06/09:30pm 20.4 22.4 19.9 97 0.3 WSW 9 11 5 6 1016.2 1014.4 0.0
06/09:00pm 20.9 22.3 19.6 92 0.8 WSW 11 17 6 9 1015.8 1014.0 0.0
06/08:30pm 21.3 22.0 19.6 90 1.1 WSW 15 24 8 13 1015.7 1013.9 0.0
06/08:00pm 23.3 25.2 19.7 80 2.3 SW 9 24 5 13 1015.3 1013.5 0.0
06/07:30pm 25.0 26.4 18.7 68 4.1 ESE 9 13 5 7 1014.6 1012.7 0.0
06/07:00pm 25.6 26.9 18.5 65 4.6 E 9 15 5 8 1014.1 1012.2 0.0
06/06:30pm 26.2 27.7 17.6 59 5.5 ESE 6 9 3 5 1013.6 1011.8 0.0
06/06:00pm 26.7 27.9 16.9 55 6.2 SE 6 11 3 6 1013.1 1011.3 0.0
06/05:30pm 27.2 27.9 17.1 54 6.4 SSE 9 13 5 7 1012.8 1011.0 0.0
06/05:00pm 27.5 28.1 16.8 52 6.7 SE 9 13 5 7 1012.5 1010.7 0.0
06/04:30pm 28.0 28.9 17.5 52 6.7 ENE 9 11 5 6 1012.3 1010.4 0.0
06/04:00pm 28.3 29.1 17.2 51 7.1 ESE 9 15 5 8 1012.3 1010.4 0.0
06/03:30pm 28.6 28.8 16.8 48 7.5 NNE 11 17 6 9 1012.4 1010.6 0.0
06/03:00pm 29.0 30.1 18.1 51 7.0 ENE 9 17 5 9 1012.5 1010.7 0.0
06/02:30pm 28.5 29.5 18.6 55 6.4 NE 11 20 6 11 1013.0 1011.2 0.0
06/02:00pm 29.0 30.3 18.4 52 6.9 NNE 9 13 5 7 1013.3 1011.5 0.0
06/01:30pm 28.5 28.8 18.0 53 6.8 NNE 13 24 7 13 1013.9 1012.0 0.0
06/01:00pm 28.0 28.9 18.4 56 6.2 NE 11 17 6 9 1014.4 1012.5 0.0
06/12:30pm 27.7 28.7 18.7 58 5.8 N 11 19 6 10 1014.7 1012.8 0.0
06/12:00pm 26.9 28.0 17.9 57 5.8 ENE 9 17 5 9 1015.1 1013.2 0.0
06/11:30am 27.3 28.4 18.0 56 6.0 NE 9 17 5 9 1015.3 1013.5 0.0
06/11:00am 26.6 27.9 19.2 64 4.8 NE 11 17 6 9 1015.4 1013.6 0.0
06/10:30am 26.2 27.3 19.6 67 4.3 NE 13 24 7 13 1015.8 1014.0 0.0
06/10:00am 25.5 26.0 19.2 68 4.1 NNE 15 26 8 14 1015.9 1014.1 0.0
06/09:30am 25.4 25.9 19.3 69 4.0 ENE 15 22 8 12 1015.9 1014.1 0.0
06/09:00am 24.3 24.4 19.1 73 3.4 NE 17 28 9 15 1016.0 1014.2 0.0
06/08:30am 23.6 24.4 19.1 76 2.9 NE 13 22 7 12 1016.2 1014.4 0.0
06/08:00am 23.0 22.8 18.5 76 2.9 ENE 17 28 9 15 1016.4 1014.6 0.0
06/07:30am 22.0 22.1 18.4 80 2.3 NE 15 24 8 13 1016.0 1014.2 0.0
06/07:00am 21.2 20.4 18.0 82 2.0 NE 19 32 10 17 1015.9 1014.1 0.0
06/06:30am 20.5 20.9 18.1 86 1.5 ENE 13 22 7 12 1015.8 1014.0 0.0
06/06:00am 19.3 19.6 17.8 91 0.9 ENE 13 22 7 12 1015.7 1013.9 0.0
06/05:30am 19.0 20.7 18.0 94 0.6 ENE 6 9 3 5 1015.5 1013.7 0.0
06/05:00am 18.4 19.7 17.6 95 0.5 ENE 7 13 4 7 1015.2 1013.3 0.0
06/04:30am 18.7 20.0 17.5 93 0.7 NE 7 11 4 6 1015.1 1013.2 0.0
06/04:00am 18.8 19.7 17.6 93 0.7 NE 9 13 5 7 1014.8 1012.9 0.0
06/03:30am 18.8 19.7 17.6 93 0.7 NE 9 13 5 7 1014.6 1012.7 0.0
06/03:00am 19.2 19.8 17.7 91 0.9 NE 11 17 6 9 1014.4 1012.5 0.0
06/02:30am 19.5 20.1 17.8 90 1.1 NE 11 15 6 8 1014.5 1012.6 0.0
06/02:00am 19.6 20.7 17.9 90 1.1 NE 9 13 5 7 1014.3 1012.4 0.0
06/01:30am 20.0 21.1 18.0 88 1.3 NE 9 15 5 8 1014.5 1012.6 0.0
06/01:00am 20.6 20.6 18.0 85 1.6 NE 15 26 8 14 1014.5 1012.6 0.0
06/12:30am 21.0 21.0 18.0 83 1.9 ENE 15 24 8 13 1014.7 1012.8 0.0
06/12:00am 21.6 21.3 18.2 81 2.1 ENE 17 28 9 15 1014.7 1012.8 0.0
 
Date/Time
EST
Temp
°C
App
Temp
°C
Dew
Point
°C
Rel
Hum
%
Delta-T
°C
Wind Press
QNH
hPa
Press
MSL
hPa
Rain since
9am
mm
Dir  Spd
km/h
Gust
km/h
Spd
kts
Gust
kts
05/11:30pm 22.1 22.2 18.3 79 2.4 ENE 15 24 8 13 1015.1 1013.2 0.0
05/11:00pm 22.7 23.2 18.3 76 2.8 ENE 13 20 7 11 1015.2 1013.3 0.0
05/10:30pm 23.2 22.8 18.1 73 3.2 E 17 30 9 16 1015.2 1013.3 0.0
05/10:00pm 23.7 23.5 18.4 72 3.4 ENE 17 28 9 15 1015.1 1013.2 0.0
05/09:30pm 24.3 24.2 18.7 71 3.6 ENE 17 30 9 16 1014.7 1012.8 0.0
05/09:00pm 24.8 24.7 18.7 69 3.9 ENE 17 28 9 15 1014.2 1012.3 0.0
05/08:30pm 24.0 26.2 19.3 75 3.0 NE 6 13 3 7 1013.8 1011.9 0.0
05/08:00pm 24.6 27.4 19.7 74 3.2 NE 4 9 2 5 1013.3 1011.5 0.0
05/07:30pm 25.7 27.4 18.4 64 4.7 ENE 7 11 4 6 1013.0 1011.2 0.0
05/07:00pm 26.4 27.9 18.8 63 4.9 ENE 9 15 5 8 1012.5 1010.7 0.0
05/06:30pm 27.1 27.7 18.7 60 5.4 E 13 22 7 12 1012.2 1010.3 0.0
05/06:00pm 28.0 28.0 19.0 58 5.9 E 17 26 9 14 1011.7 1009.8 0.0
05/05:30pm 28.4 29.2 18.2 54 6.6 ENE 11 17 6 9 1011.2 1009.3 0.0
05/05:00pm 29.2 30.3 18.0 50 7.2 ENE 9 15 5 8 1010.9 1009.0 0.0
05/04:30pm 29.3 30.1 19.0 53 6.7 E 13 22 7 12 1010.8 1008.9 0.0
05/04:00pm 30.0 31.3 18.4 49 7.6 SE 9 19 5 10 1010.9 1009.0 0.0
05/03:30pm 29.7 30.1 19.1 53 7.0 ESE 15 24 8 13 1011.0 1009.1 0.0
05/03:00pm 30.9 31.8 19.3 50 7.7 S 13 26 7 14 1011.1 1009.2 0.0
05/02:30pm 31.7 31.5 14.8 36 10.5 SSW 9 19 5 10 1011.3 1009.4 0.0
05/02:00pm 31.1 30.1 13.4 34 10.7 S 11 17 6 9 1011.6 1009.7 0.0
05/01:30pm 31.4 31.6 15.8 39 9.8 W 9 17 5 9 1011.8 1009.9 0.0
05/01:00pm 30.9 29.6 13.7 35 10.5 SSW 13 20 7 11 1012.0 1010.1 0.0
05/12:30pm 30.6 30.6 15.1 39 9.6 ESE 9 15 5 8 1012.4 1010.6 0.0
05/12:00pm 30.5 30.8 16.1 41 9.1 SSW 9 15 5 8 1012.5 1010.7 0.0
05/11:30am 30.5 29.5 13.3 35 10.4 SW 11 20 6 11 1013.0 1011.2 0.0
05/11:00am 30.0 29.2 12.9 35 10.3 SW 9 15 5 8 1013.2 1011.4 0.0
05/10:30am 29.8 30.4 15.9 43 8.7 SSW 7 17 4 9 1013.3 1011.5 0.0
05/10:00am 28.7 29.7 16.3 47 7.8 WNW 6 13 3 7 1013.6 1011.8 0.0
05/09:30am 28.0 29.3 17.2 51 6.9 NW 6 11 3 6 1013.8 1011.9 0.0
05/09:00am 27.1 28.9 17.3 55 6.2 NNE 4 9 2 5 1013.9 1012.0 1.4
05/08:30am 26.4 28.8 18.0 60 5.4 WSW 2 7 1 4 1013.9 1012.0 1.4
05/08:00am 25.0 26.5 15.6 56 5.8 S 2 7 1 4 1014.1 1012.2 1.4
05/07:30am 24.5 26.5 17.0 63 4.7 SW 2 6 1 3 1013.9 1012.0 1.4
05/07:00am 23.1 24.2 16.6 67 4.0 SW 6 9 3 5 1013.4 1011.6 1.4
05/06:30am 21.1 24.3 18.9 87 1.4 CALM 0 6 0 3 1013.4 1011.6 1.4
05/06:00am 19.0 21.8 18.8 99 0.1 WNW 2 7 1 4 1013.2 1011.4 1.4
05/05:30am 17.3 19.4 17.3 100 0.0 WSW 2 6 1 3 1012.7 1010.9 1.4
05/05:00am 17.2 19.7 17.2 100 0.0 CALM 0 0 0 0 1012.5 1010.7 1.4
05/04:30am 17.4 20.0 17.4 100 0.0 CALM 0 0 0 0 1012.2 1010.3 1.4
05/04:00am 17.5 20.1 17.5 100 0.0 CALM 0 0 0 0 1012.2 1010.3 1.4
05/03:30am 17.8 20.5 17.8 100 0.0 CALM 0 0 0 0 1011.9 1010.0 1.4
05/03:00am 18.2 21.0 18.0 99 0.1 CALM 0 0 0 0 1012.1 1010.2 1.4
05/02:30am 18.7 21.7 18.5 99 0.1 CALM 0 0 0 0 1011.9 1010.0 1.4
05/02:00am 19.5 22.6 18.7 95 0.5 CALM 0 0 0 0 1012.1 1010.2 1.4
05/01:30am 20.3 22.1 17.3 83 1.9 SE 4 6 2 3 1012.3 1010.4 1.4
05/01:00am 21.5 23.4 15.8 70 3.5 CALM 0 6 0 3 1012.4 1010.6 1.4
05/12:30am 21.9 22.6 16.2 70 3.5 SSW 7 11 4 6 1012.6 1010.8 1.4
05/12:00am 22.9 23.7 16.4 66 4.0 SSW 7 11 4 6 1012.8 1011.0 1.4
 
Date/Time
EST
Temp
°C
App
Temp
°C
Dew
Point
°C
Rel
Hum
%
Delta-T
°C
Wind Press
QNH
hPa
Press
MSL
hPa
Rain since
9am
mm
Dir  Spd
km/h
Gust
km/h
Spd
kts
Gust
kts
04/11:30pm 24.3 23.6 16.3 61 4.9 S 15 24 8 13 1013.1 1011.3 1.4
04/11:00pm 23.9 25.1 19.0 74 3.2 S 11 17 6 9 1012.9 1011.1 1.4
04/10:30pm 21.4 25.1 21.4 100 0.0 SSW 4 11 2 6 1012.8 1011.0 1.4
04/10:00pm 21.5 26.0 21.5 100 0.0 CALM 0 0 0 0 1012.8 1011.0 1.4
04/09:30pm 22.0 26.6 21.8 99 0.1 CALM 0 6 0 3 1012.6 1010.8 1.4
04/09:00pm 22.4 25.9 22.2 99 0.1 N 7 13 4 7 1012.2 1010.3 1.4
04/08:30pm 22.8 28.0 22.8 100 0.0 CALM 0 0 0 0 1011.5 1009.6 1.4
04/08:00pm 23.2 28.5 23.0 99 0.1 CALM 0 0 0 0 1011.1 1009.2 1.4
04/07:30pm 23.7 28.3 21.8 89 1.3 CALM 0 0 0 0 1010.6 1008.7 1.4
04/07:00pm 24.1 28.8 22.0 88 1.4 CALM 0 0 0 0 1010.2 1008.4 1.4
04/06:30pm 25.3 28.5 21.6 80 2.5 N 7 13 4 7 1010.2 1008.4 1.4
04/06:00pm 27.0 29.0 21.5 72 3.7 N 13 22 7 12 1010.2 1008.4 1.4
04/05:30pm 28.1 33.1 23.9 78 2.9 NW 4 7 2 4 1009.7 1007.9 1.4
04/05:00pm 27.5 31.2 23.3 78 2.9 S 9 17 5 9 1009.3 1007.4 1.4
04/04:38pm 25.0 24.0 20.5 76 3.0 SSE 26 48 14 26 1010.2 1008.4 0.2
04/04:30pm 30.8 30.8 20.1 53 7.1 SSE 20 35 11 19 1009.9 1008.1 0.0
04/04:00pm 33.9 35.5 19.2 42 9.8 SSW 9 13 5 7 1009.2 1007.3 0.0
04/03:30pm 34.4 37.1 21.4 46 8.9 SW 9 19 5 10 1009.4 1007.6 0.0
04/03:00pm 33.9 36.8 21.0 47 8.8 SW 7 15 4 8 1009.7 1007.9 0.0
04/02:30pm 33.8 35.9 20.2 44 9.2 WSW 9 17 5 9 1010.4 1008.5 0.0
04/02:00pm 33.6 36.8 23.0 54 7.4 WSW 11 17 6 9 1011.0 1009.1 0.0
04/01:30pm 33.3 37.6 23.6 56 6.8 WSW 7 13 4 7 1011.6 1009.7 0.0
04/01:00pm 32.5 35.2 21.4 52 7.6 SSW 9 15 5 8 1012.0 1010.1 0.0
04/12:30pm 31.9 36.0 22.9 59 6.2 NW 6 19 3 10 1012.3 1010.4 0.0
04/12:00pm 31.8 35.1 22.5 58 6.4 W 9 17 5 9 1012.5 1010.7 0.0
04/11:30am 31.5 35.5 23.1 61 5.8 NE 7 13 4 7 1013.0 1011.2 0.0
04/11:00am 30.6 34.4 22.7 62 5.5 W 7 13 4 7 1013.4 1011.6 0.0
04/10:30am 29.8 34.2 23.5 69 4.4 NW 6 11 3 6 1014.0 1012.1 0.0

Other formats

Comma delimited format used in spreadsheet applications
http://www.bom.gov.au/fwo/IDQ60801/IDQ60801.95529.axf

JavaScript Object Notation format (JSON) in row-major order
http://www.bom.gov.au/fwo/IDQ60801/IDQ60801.95529.json

Data quality

Most of these data are generated automatically and are frequently updated. Quality checks on data are not normally performed. It is possible for incorrect values to appear. Refer to information at About Latest Weather Observations and please check the disclaimer before using these data.